Time;durP1;ratioP1;P1;durP2;ratioP2;P2;SDS_P1;SDS_P2;PMS_P1;PMS_P2;Temp;Humidity;BMP_temperature;BMP_pressure;BME280_temperature;BME280_humidity;BME280_pressure;Samples;Min_cycle;Max_cycle;Signal;HPM_P1;HPM_P2
2023/11/27 00:02:15;;;;;;;12.55;6.80;;;;;;;4.11;100.00;100090.00;5015346;28;20269;-71
2023/11/27 00:04:41;;;;;;;17.40;6.93;;;;;;;4.11;100.00;100080.94;5001964;28;20033;-71
2023/11/27 00:07:06;;;;;;;12.50;6.65;;;;;;;4.12;100.00;100074.34;5027514;28;20235;-71
2023/11/27 00:09:32;;;;;;;14.05;6.85;;;;;;;4.13;100.00;100070.53;5029745;28;20025;-71
2023/11/27 00:11:57;;;;;;;12.25;7.63;;;;;;;4.14;100.00;100063.94;5035034;28;20473;-71
2023/11/27 00:14:23;;;;;;;18.15;7.18;;;;;;;4.13;100.00;100057.63;5010862;28;20030;-71
2023/11/27 00:16:48;;;;;;;13.05;7.10;;;;;;;4.14;100.00;100047.44;5014635;28;20067;-71
2023/11/27 00:19:14;;;;;;;14.73;6.90;;;;;;;4.17;100.00;100052.41;5016487;28;20030;-71
2023/11/27 00:21:39;;;;;;;14.35;6.88;;;;;;;4.16;100.00;100048.00;5018828;28;20032;-71
2023/11/27 00:24:05;;;;;;;18.38;6.95;;;;;;;4.16;100.00;100045.28;5000019;28;20034;-71
2023/11/27 00:26:30;;;;;;;15.40;7.90;;;;;;;4.16;100.00;100029.59;5042804;28;20029;-71
2023/11/27 00:28:56;;;;;;;15.27;6.97;;;;;;;4.18;100.00;100026.56;5018520;28;20044;-71
2023/11/27 00:31:21;;;;;;;12.45;7.07;;;;;;;4.18;100.00;100024.69;5018927;28;20621;-71
2023/11/27 00:33:47;;;;;;;15.90;7.72;;;;;;;4.17;100.00;100020.25;4999691;28;20038;-71
2023/11/27 00:36:13;;;;;;;13.38;7.28;;;;;;;4.18;100.00;100012.81;5015307;28;20081;-71
2023/11/27 00:38:39;;;;;;;13.68;7.75;;;;;;;4.18;100.00;100010.94;5013105;28;20037;-71
2023/11/27 00:41:05;;;;;;;15.43;6.68;;;;;;;4.19;100.00;100007.09;4998719;28;20057;-71
2023/11/27 00:43:31;;;;;;;12.55;7.57;;;;;;;4.21;100.00;100004.09;5000170;28;20037;-71
2023/11/27 00:45:56;;;;;;;12.57;7.22;;;;;;;4.20;100.00;99994.97;5002020;28;20029;-71
2023/11/27 00:48:22;;;;;;;13.90;7.40;;;;;;;4.22;100.00;100000.22;5018228;28;20478;-71
2023/11/27 00:50:48;;;;;;;14.65;7.05;;;;;;;4.20;100.00;99992.22;4998631;28;20030;-71
2023/11/27 00:53:13;;;;;;;11.48;7.28;;;;;;;4.19;100.00;99987.84;5028724;28;20028;-71
2023/11/27 00:55:39;;;;;;;17.20;7.90;;;;;;;4.21;100.00;99984.84;5034715;28;20060;-71
2023/11/27 00:58:04;;;;;;;14.43;7.47;;;;;;;4.21;100.00;99977.41;5016497;28;20029;-71
2023/11/27 01:00:30;;;;;;;14.65;7.47;;;;;;;4.23;100.00;99957.91;4998205;28;20038;-71
2023/11/27 01:02:56;;;;;;;15.80;7.78;;;;;;;4.22;100.00;99956.25;5013839;28;20032;-71
2023/11/27 01:05:21;;;;;;;11.52;7.03;;;;;;;4.23;100.00;99946.91;4985920;28;20034;-71
2023/11/27 01:07:47;;;;;;;17.45;7.40;;;;;;;4.24;100.00;99949.41;5035685;28;20029;-71
2023/11/27 01:10:12;;;;;;;17.35;7.45;;;;;;;4.23;100.00;99947.75;5035823;28;20029;-71
2023/11/27 01:12:38;;;;;;;12.95;6.72;;;;;;;4.27;100.00;99941.72;5030929;28;20079;-71
2023/11/27 01:15:07;;;;;;;11.13;6.65;;;;;;;4.24;100.00;99943.91;4999142;28;20034;-71
2023/11/27 01:17:33;;;;;;;15.88;7.07;;;;;;;4.27;100.00;99941.72;4987906;28;20038;-71
2023/11/27 01:19:58;;;;;;;16.58;7.68;;;;;;;4.27;100.00;99926.03;5013823;28;20444;-71
2023/11/27 01:22:24;;;;;;;14.70;6.47;;;;;;;4.28;100.00;99940.63;5002406;28;20030;-71
2023/11/27 01:24:49;;;;;;;16.90;7.45;;;;;;;4.29;100.00;99929.38;5039361;28;20470;-71
2023/11/27 01:27:15;;;;;;;11.85;6.63;;;;;;;4.29;100.00;99928.50;5036802;28;20040;-71
2023/11/27 01:29:40;;;;;;;14.02;7.25;;;;;;;4.31;100.00;99926.34;4985629;28;20325;-71
2023/11/27 01:32:06;;;;;;;14.73;6.53;;;;;;;4.30;100.00;99920.00;5018746;28;20474;-71
2023/11/27 01:34:32;;;;;;;11.75;6.25;;;;;;;4.31;100.00;99915.34;4988894;28;20036;-71
2023/11/27 01:36:58;;;;;;;15.02;6.70;;;;;;;4.31;100.00;99907.09;5041109;28;20034;-71
2023/11/27 01:39:23;;;;;;;12.40;6.72;;;;;;;4.34;100.00;99914.81;4989004;28;20029;-71
2023/11/27 01:41:49;;;;;;;13.32;6.63;;;;;;;4.34;100.00;99912.06;5018885;28;20084;-71
2023/11/27 01:44:14;;;;;;;15.27;6.80;;;;;;;4.35;100.00;99914.53;5018200;28;20030;-71
2023/11/27 01:46:46;;;;;;;13.43;6.20;;;;;;;4.34;100.00;99920.31;5053994;28;20033;-71
2023/11/27 01:49:11;;;;;;;15.40;6.00;;;;;;;4.34;100.00;99909.31;5017795;28;20065;-71
2023/11/27 01:51:37;;;;;;;15.48;5.97;;;;;;;4.37;100.00;99906.00;5019736;28;20037;-71
2023/11/27 01:54:02;;;;;;;11.27;5.88;;;;;;;4.39;100.00;99903.84;5029483;28;20029;-71
2023/11/27 01:56:28;;;;;;;13.93;5.63;;;;;;;4.39;100.00;99895.59;5030765;28;20032;-71
2023/11/27 01:58:56;;;;;;;14.77;5.65;;;;;;;4.39;100.00;99885.41;5001725;28;20033;-71
2023/11/27 02:01:22;;;;;;;14.30;5.38;;;;;;;4.40;100.00;99878.84;5016324;28;20109;-71
2023/11/27 02:03:48;;;;;;;12.85;5.75;;;;;;;4.41;100.00;99871.41;4999556;28;20105;-71
2023/11/27 02:06:13;;;;;;;11.50;5.32;;;;;;;4.41;100.00;99874.97;5012175;28;20029;-71
2023/11/27 02:08:40;;;;;;;11.70;5.20;;;;;;;4.44;100.00;99870.88;5020708;28;20032;-71
2023/11/27 02:11:05;;;;;;;9.32;5.47;;;;;;;4.41;100.00;99863.97;5004829;28;20524;-71
2023/11/27 02:13:31;;;;;;;11.38;4.90;;;;;;;4.41;100.00;99860.41;5020974;28;20037;-71
2023/11/27 02:15:57;;;;;;;11.05;5.05;;;;;;;4.45;100.00;99867.00;5020195;28;20041;-72
2023/11/27 02:18:22;;;;;;;10.27;5.45;;;;;;;4.44;100.00;99859.88;5001432;28;20038;-71
2023/11/27 02:20:48;;;;;;;9.55;5.03;;;;;;;4.45;100.00;99856.00;5034820;28;20034;-71
2023/11/27 02:23:17;;;;;;;12.30;5.03;;;;;;;4.43;100.00;99856.28;5001042;28;20068;-71
2023/11/27 02:25:42;;;;;;;12.50;5.25;;;;;;;4.44;100.00;99851.63;5031572;28;20037;-71
2023/11/27 02:28:08;;;;;;;10.18;5.43;;;;;;;4.44;100.00;99837.88;5000284;28;20034;-71
2023/11/27 02:30:34;;;;;;;10.82;5.18;;;;;;;4.45;100.00;99842.25;5023045;28;20022;-71
2023/11/27 02:32:59;;;;;;;11.48;4.60;;;;;;;4.46;100.00;99841.19;5004158;28;20053;-71
2023/11/27 02:35:25;;;;;;;11.40;4.80;;;;;;;4.44;100.00;99835.13;5020448;28;20065;-71
2023/11/27 02:37:51;;;;;;;7.78;4.25;;;;;;;4.44;100.00;99819.44;5028553;28;20041;-71
2023/11/27 02:40:17;;;;;;;11.25;4.75;;;;;;;4.46;100.00;99824.69;5015332;28;20098;-71
2023/11/27 02:42:42;;;;;;;8.57;4.78;;;;;;;4.47;100.00;99824.41;5036935;28;20116;-71
2023/11/27 02:45:11;;;;;;;10.15;4.93;;;;;;;4.49;100.00;99818.66;5003377;28;20494;-71
2023/11/27 02:47:37;;;;;;;13.80;5.28;;;;;;;4.49;100.00;99818.66;5031319;28;20497;-71
2023/11/27 02:50:05;;;;;;;11.38;4.15;;;;;;;4.49;100.00;99807.66;5033332;28;20037;-71
2023/11/27 02:52:30;;;;;;;10.73;4.82;;;;;;;4.51;100.00;99808.19;5020279;28;20045;-71
2023/11/27 02:54:56;;;;;;;10.23;4.20;;;;;;;4.52;100.00;99795.28;5003674;28;20037;-71
2023/11/27 02:57:22;;;;;;;11.43;3.95;;;;;;;4.52;100.00;99800.78;5020180;28;20422;-71
2023/11/27 02:59:48;;;;;;;8.63;4.15;;;;;;;4.53;100.00;99789.50;5002689;28;20080;-71
2023/11/27 03:02:14;;;;;;;11.02;4.60;;;;;;;4.52;100.00;99787.84;5019830;28;20056;-71
2023/11/27 03:04:39;;;;;;;11.60;4.20;;;;;;;4.53;100.00;99785.91;5019886;28;20025;-71
2023/11/27 03:07:05;;;;;;;13.43;4.05;;;;;;;4.54;100.00;99785.66;5019921;28;20092;-71
2023/11/27 03:09:31;;;;;;;9.60;3.90;;;;;;;4.55;100.00;99776.31;5017331;28;20041;-71
2023/11/27 03:11:59;;;;;;;13.32;5.05;;;;;;;4.57;100.00;99770.50;5016319;28;20038;-71
2023/11/27 03:14:25;;;;;;;13.20;4.47;;;;;;;4.58;100.00;99766.69;5030908;28;20063;-71
2023/11/27 03:16:50;;;;;;;7.68;4.47;;;;;;;4.58;100.00;99755.69;4999473;28;20257;-71
2023/11/27 03:19:16;;;;;;;8.05;4.28;;;;;;;4.59;100.00;99755.41;5059971;28;20030;-71
2023/11/27 03:21:41;;;;;;;11.38;4.15;;;;;;;4.61;100.00;99739.47;5027944;28;20022;-72
2023/11/27 03:24:07;;;;;;;10.43;4.28;;;;;;;4.62;100.00;99732.84;5034215;28;20172;-72
2023/11/27 03:26:32;;;;;;;11.68;3.95;;;;;;;4.65;100.00;99734.22;5016069;28;20391;-71
2023/11/27 03:28:58;;;;;;;11.27;3.85;;;;;;;4.66;100.00;99727.66;5014118;28;20033;-72
2023/11/27 03:31:23;;;;;;;10.55;4.20;;;;;;;4.67;100.00;99718.28;4983589;28;20026;-71
2023/11/27 03:33:49;;;;;;;10.43;4.07;;;;;;;4.69;100.00;99708.66;5029475;28;20041;-71
2023/11/27 03:36:15;;;;;;;11.95;4.30;;;;;;;4.69;100.00;99711.41;4999561;28;20030;-71
2023/11/27 03:38:40;;;;;;;12.68;4.65;;;;;;;4.73;100.00;99708.09;5028333;28;20029;-71
2023/11/27 03:41:08;;;;;;;8.45;4.07;;;;;;;4.74;100.00;99705.09;5014250;28;20040;-71
2023/11/27 03:43:33;;;;;;;8.20;4.20;;;;;;;4.75;100.00;99705.91;5019317;28;20068;-71
2023/11/27 03:46:00;;;;;;;12.85;4.63;;;;;;;4.76;100.00;99710.31;4983141;28;20026;-71
2023/11/27 03:48:25;;;;;;;9.90;4.30;;;;;;;4.76;100.00;99696.53;4997386;28;20038;-71
2023/11/27 03:50:51;;;;;;;9.25;3.85;;;;;;;4.79;100.00;99698.75;4999692;28;20037;-71
2023/11/27 03:53:16;;;;;;;9.00;3.95;;;;;;;4.77;100.00;99696.28;5032179;28;20029;-71
2023/11/27 03:55:42;;;;;;;8.25;4.20;;;;;;;4.80;100.00;99692.97;5018902;28;20075;-71
2023/11/27 03:58:07;;;;;;;8.65;3.80;;;;;;;4.81;100.00;99697.38;5018850;28;20034;-71
2023/11/27 04:00:33;;;;;;;8.27;3.75;;;;;;;4.82;100.00;99700.94;5035067;28;20038;-71
2023/11/27 04:02:58;;;;;;;11.40;4.13;;;;;;;4.83;100.00;99691.59;5029940;28;20465;-71
2023/11/27 04:05:24;;;;;;;8.82;3.80;;;;;;;4.84;100.00;99683.06;5022487;28;20028;-71
2023/11/27 04:07:49;;;;;;;8.02;3.83;;;;;;;4.86;100.00;99678.13;5031430;28;20474;-71
2023/11/27 04:10:16;;;;;;;8.90;3.92;;;;;;;4.86;100.00;99675.38;5035168;28;20041;-71
2023/11/27 04:12:43;;;;;;;12.82;4.00;;;;;;;4.89;100.00;99674.00;5036333;28;20036;-72
2023/11/27 04:15:09;;;;;;;8.13;3.78;;;;;;;4.91;100.00;99664.34;4999377;28;20034;-71
2023/11/27 04:17:35;;;;;;;8.82;3.78;;;;;;;4.93;100.00;99655.81;5010303;28;20051;-71
2023/11/27 04:20:05;;;;;;;9.13;3.95;;;;;;;4.93;100.00;99658.56;5014435;28;20029;-72
2023/11/27 04:22:31;;;;;;;10.48;4.03;;;;;;;4.95;100.00;99656.38;5001717;28;20068;-71
2023/11/27 04:24:58;;;;;;;8.18;3.70;;;;;;;4.97;100.00;99645.09;4998921;28;20117;-72
2023/11/27 04:27:24;;;;;;;10.77;3.95;;;;;;;4.96;100.00;99641.53;5012652;28;20061;-71
2023/11/27 04:29:49;;;;;;;8.73;4.10;;;;;;;4.98;100.00;99622.78;5001922;28;20045;-71
2023/11/27 04:32:15;;;;;;;8.63;3.92;;;;;;;4.99;100.00;99629.94;5034681;28;20109;-71
2023/11/27 04:34:40;;;;;;;6.05;3.80;;;;;;;5.01;100.00;99615.91;4998776;28;20025;-72
2023/11/27 04:37:07;;;;;;;7.13;4.00;;;;;;;5.02;100.00;99618.38;4997425;28;20460;-72
2023/11/27 04:39:33;;;;;;;8.30;4.25;;;;;;;5.02;100.00;99610.13;5015303;28;20026;-71
2023/11/27 04:41:58;;;;;;;9.05;3.70;;;;;;;5.04;100.00;99612.59;5001052;28;20042;-72
2023/11/27 04:44:24;;;;;;;7.68;3.40;;;;;;;5.05;100.00;99617.00;5034922;28;20044;-72
2023/11/27 04:46:52;;;;;;;8.23;3.92;;;;;;;5.06;100.00;99613.97;4998369;28;20038;-72
2023/11/27 04:49:18;;;;;;;11.27;4.15;;;;;;;5.10;100.00;99609.56;4991939;28;20025;-72
2023/11/27 04:51:43;;;;;;;7.95;3.55;;;;;;;5.11;100.00;99611.19;5004883;28;20052;-72
2023/11/27 04:54:09;;;;;;;7.53;3.25;;;;;;;5.14;100.00;99604.31;5022279;28;20071;-72
2023/11/27 04:56:35;;;;;;;8.13;3.30;;;;;;;5.14;100.00;99610.63;5003295;28;22077;-72
2023/11/27 04:59:00;;;;;;;6.07;2.95;;;;;;;5.17;100.00;99606.50;5018638;28;20065;-72
2023/11/27 05:01:26;;;;;;;6.45;3.25;;;;;;;5.20;100.00;99596.84;5034549;28;20083;-72
2023/11/27 05:03:52;;;;;;;8.07;3.30;;;;;;;5.21;100.00;99609.50;5031204;28;20018;-72
2023/11/27 05:06:17;;;;;;;7.28;3.33;;;;;;;5.29;100.00;99620.78;5003637;28;20048;-72
2023/11/27 05:08:43;;;;;;;4.38;2.88;;;;;;;5.33;100.00;99621.88;5005530;28;20025;-72
2023/11/27 05:11:16;;;;;;;5.47;3.08;;;;;;;5.35;100.00;99611.41;5038438;28;20030;-72
2023/11/27 05:13:42;;;;;;;5.45;2.90;;;;;;;5.35;100.00;99611.41;5038354;28;20064;-72
2023/11/27 05:16:08;;;;;;;7.25;2.88;;;;;;;5.39;100.00;99606.16;5037871;28;20537;-72
2023/11/27 05:18:33;;;;;;;4.43;2.95;;;;;;;5.44;100.00;99597.88;5038349;28;20025;-72
2023/11/27 05:20:58;;;;;;;6.10;3.00;;;;;;;5.46;100.00;99601.16;5005260;28;20045;-71
2023/11/27 05:23:24;;;;;;;5.50;2.70;;;;;;;5.50;100.00;99602.25;4985828;28;20030;-72
2023/11/27 05:25:49;;;;;;;5.78;3.00;;;;;;;5.50;100.00;99602.25;5017479;28;20044;-72
2023/11/27 05:28:15;;;;;;;3.72;2.67;;;;;;;5.53;100.00;99601.66;5036792;28;20129;-71
2023/11/27 05:30:40;;;;;;;7.03;2.72;;;;;;;5.56;100.00;99603.84;5024490;28;20030;-72
2023/11/27 05:33:06;;;;;;;5.53;3.05;;;;;;;5.54;100.00;99600.59;5018402;28;20053;-72
2023/11/27 05:35:31;;;;;;;6.88;2.50;;;;;;;5.56;100.00;99597.53;5021707;28;20033;-72
2023/11/27 05:37:57;;;;;;;4.05;2.30;;;;;;;5.57;100.00;99585.41;5021483;28;20041;-71
2023/11/27 05:40:22;;;;;;;5.43;2.45;;;;;;;5.59;100.00;99583.19;5037903;28;20095;-72
2023/11/27 05:42:51;;;;;;;5.07;2.60;;;;;;;5.62;100.00;99579.03;5004877;28;20033;-72
2023/11/27 05:45:17;;;;;;;4.50;2.30;;;;;;;5.64;100.00;99568.56;5021547;28;20036;-72
2023/11/27 05:47:43;;;;;;;4.85;2.85;;;;;;;5.63;100.00;99566.91;5021336;28;20029;-71
2023/11/27 05:50:20;;;;;;;3.97;2.50;;;;;;;5.68;100.00;99572.38;5005124;28;20033;-72
2023/11/27 05:52:48;;;;;;;5.10;2.30;;;;;;;5.65;100.00;99567.44;5022956;28;20041;-72
2023/11/27 05:55:14;;;;;;;4.97;2.40;;;;;;;5.68;100.00;99569.63;5021739;28;20060;-72
2023/11/27 05:57:39;;;;;;;5.38;2.30;;;;;;;5.69;100.00;99561.09;5021313;28;20474;-72
2023/11/27 06:00:06;;;;;;;4.72;2.45;;;;;;;5.70;100.00;99557.22;5001554;28;20034;-72
2023/11/27 06:02:31;;;;;;;5.97;2.28;;;;;;;5.72;100.00;99549.50;5016511;28;20034;-72
2023/11/27 06:04:57;;;;;;;3.72;2.15;;;;;;;5.76;100.00;99545.06;5004851;28;20493;-72
2023/11/27 06:07:23;;;;;;;4.78;2.25;;;;;;;5.77;100.00;99548.66;5001728;28;20030;-72
2023/11/27 06:09:48;;;;;;;3.80;2.50;;;;;;;5.79;100.00;99546.41;5017832;28;20040;-71
2023/11/27 06:12:14;;;;;;;4.32;2.00;;;;;;;5.82;100.00;99537.56;5020981;28;20029;-71
2023/11/27 06:14:39;;;;;;;2.97;2.00;;;;;;;5.81;100.00;99535.94;5030832;28;20437;-71
2023/11/27 06:17:05;;;;;;;5.93;2.00;;;;;;;5.83;100.00;99542.00;5007324;28;20477;-72
2023/11/27 06:19:31;;;;;;;3.35;2.10;;;;;;;5.87;100.00;99543.06;5001139;28;20041;-71
2023/11/27 06:21:58;;;;;;;8.15;2.20;;;;;;;5.88;100.00;99530.94;5020562;28;20021;-71
2023/11/27 06:24:25;;;;;;;4.03;2.08;;;;;;;5.86;100.00;99524.88;5050270;28;20064;-71
2023/11/27 06:26:50;;;;;;;2.75;1.83;;;;;;;5.88;100.00;99519.06;5037049;28;20397;-71
2023/11/27 06:29:16;;;;;;;2.63;1.70;;;;;;;5.87;100.00;99517.44;5002748;28;20064;-72
2023/11/27 06:31:41;;;;;;;3.33;1.77;;;;;;;5.90;100.00;99512.16;5020235;28;20113;-72
2023/11/27 06:34:07;;;;;;;4.93;1.90;;;;;;;5.90;100.00;99514.94;5020304;28;20040;-71
2023/11/27 06:36:32;;;;;;;2.83;1.85;;;;;;;5.93;100.00;99511.63;5036951;28;20526;-71
2023/11/27 06:38:58;;;;;;;5.03;2.22;;;;;;;5.93;100.00;99506.13;5038007;28;20033;-72
2023/11/27 06:41:25;;;;;;;3.05;2.40;;;;;;;5.95;100.00;99503.91;5017111;28;20457;-72
2023/11/27 06:43:51;;;;;;;4.57;2.25;;;;;;;5.94;100.00;99502.25;5000880;28;20034;-71
2023/11/27 06:46:17;;;;;;;10.77;2.42;;;;;;;5.98;100.00;99500.56;5029544;28;20033;-71
2023/11/27 06:48:43;;;;;;;5.97;2.60;;;;;;;5.99;100.00;99493.97;5019979;28;20083;-71
2023/11/27 06:51:09;;;;;;;6.40;2.40;;;;;;;5.99;100.00;99493.97;4984206;28;20030;-71
2023/11/27 06:53:35;;;;;;;2.38;2.17;;;;;;;6.00;100.00;99490.09;5035269;28;20030;-71
2023/11/27 06:56:01;;;;;;;4.82;2.53;;;;;;;6.00;100.00;99479.06;5016651;28;20049;-72
2023/11/27 06:58:26;;;;;;;4.53;2.88;;;;;;;6.02;100.00;99476.84;5000215;28;20036;-71
2023/11/27 07:00:52;;;;;;;4.00;2.58;;;;;;;6.04;100.00;99482.91;4999858;28;20383;-71
2023/11/27 07:03:17;;;;;;;3.22;2.30;;;;;;;6.04;100.00;99480.13;5000817;28;20056;-72
2023/11/27 07:05:43;;;;;;;6.15;2.92;;;;;;;6.07;100.00;99472.38;5026423;28;20026;-72
2023/11/27 07:08:08;;;;;;;4.25;2.60;;;;;;;6.03;100.00;99478.47;4987125;28;20088;-71
2023/11/27 07:10:34;;;;;;;4.75;2.47;;;;;;;6.07;100.00;99475.13;5016551;28;20041;-72
2023/11/27 07:13:00;;;;;;;3.80;2.20;;;;;;;6.05;100.00;99475.44;4987059;28;20021;-72
2023/11/27 07:15:28;;;;;;;5.45;3.15;;;;;;;6.04;100.00;99474.63;5019462;28;20156;-71
2023/11/27 07:17:53;;;;;;;3.97;2.40;;;;;;;6.04;100.00;99471.03;5020049;28;20041;-72
2023/11/27 07:20:19;;;;;;;9.77;3.15;;;;;;;6.05;100.00;99464.41;5016160;28;20037;-71
2023/11/27 07:22:48;;;;;;;6.10;3.58;;;;;;;6.03;100.00;99472.97;5016713;28;20039;-72
2023/11/27 07:25:16;;;;;;;5.45;3.38;;;;;;;6.04;100.00;99469.13;5036193;28;20029;-71
2023/11/27 07:27:49;;;;;;;4.00;3.22;;;;;;;6.02;100.00;99460.31;5024091;28;20026;-71
2023/11/27 07:30:15;;;;;;;4.40;3.22;;;;;;;6.04;100.00;99454.47;5020205;28;20026;-71
2023/11/27 07:32:40;;;;;;;4.28;3.47;;;;;;;6.02;100.00;99454.78;5041175;28;20029;-71
2023/11/27 07:35:07;;;;;;;4.63;2.75;;;;;;;6.01;100.00;99453.13;5043851;28;20034;-71
2023/11/27 07:37:33;;;;;;;7.50;3.80;;;;;;;6.01;100.00;99450.38;4999818;28;20034;-71
2023/11/27 07:39:58;;;;;;;3.47;2.70;;;;;;;6.02;100.00;99448.47;5008233;28;20037;-71
2023/11/27 07:42:25;;;;;;;2.70;2.45;;;;;;;6.01;100.00;99444.84;4999769;28;20084;-72
2023/11/27 07:44:51;;;;;;;4.50;2.60;;;;;;;5.99;100.00;99441.59;5015934;28;20058;-71
2023/11/27 07:47:16;;;;;;;4.13;3.05;;;;;;;5.99;100.00;99447.09;5025236;28;20521;-71
2023/11/27 07:49:42;;;;;;;4.93;3.63;;;;;;;6.02;100.00;99442.94;4999566;28;20017;-71
2023/11/27 07:52:08;;;;;;;7.97;3.55;;;;;;;6.00;100.00;99434.97;5034780;28;20037;-72
2023/11/27 07:54:33;;;;;;;6.07;3.60;;;;;;;5.99;100.00;99427.81;5022696;28;20034;-72
2023/11/27 07:57:00;;;;;;;6.78;3.95;;;;;;;6.01;100.00;99430.25;5018455;28;20517;-72
2023/11/27 07:59:26;;;;;;;5.32;3.17;;;;;;;6.00;100.00;99429.44;4999296;28;20026;-72
2023/11/27 08:01:51;;;;;;;7.07;3.50;;;;;;;6.02;100.00;99432.75;5031546;28;20032;-71
2023/11/27 08:04:17;;;;;;;5.82;3.20;;;;;;;5.99;100.00;99433.31;5002677;28;20021;-71
2023/11/27 08:06:44;;;;;;;3.83;3.28;;;;;;;5.98;100.00;99430.84;5018943;28;20091;-71
2023/11/27 08:09:11;;;;;;;6.35;4.00;;;;;;;6.00;100.00;99434.97;5002806;28;20037;-71
2023/11/27 08:11:36;;;;;;;8.32;3.33;;;;;;;6.00;100.00;99434.13;5018743;28;20140;-71
2023/11/27 08:14:01;;;;;;;4.07;2.72;;;;;;;5.99;100.00;99433.31;5018782;28;20030;-72
2023/11/27 08:16:27;;;;;;;3.47;3.10;;;;;;;6.00;100.00;99425.88;4998465;28;20049;-72
2023/11/27 08:18:53;;;;;;;4.13;2.83;;;;;;;6.01;100.00;99422.00;5006901;28;20026;-71
2023/11/27 08:21:18;;;;;;;4.35;3.50;;;;;;;6.03;100.00;99423.34;4997426;28;20040;-71
2023/11/27 08:23:44;;;;;;;4.88;3.15;;;;;;;6.02;100.00;99424.47;5015175;28;20025;-71
2023/11/27 08:26:10;;;;;;;5.63;3.13;;;;;;;6.03;100.00;99423.34;5005245;28;20059;-71
2023/11/27 08:28:36;;;;;;;5.00;3.13;;;;;;;6.06;100.00;99412.88;5033628;28;20033;-72
2023/11/27 08:31:04;;;;;;;5.38;3.22;;;;;;;6.07;100.00;99412.56;5001761;28;20389;-72
2023/11/27 08:33:29;;;;;;;5.72;3.15;;;;;;;6.10;100.00;99411.16;5018386;28;20025;-71
2023/11/27 08:35:57;;;;;;;7.70;3.60;;;;;;;6.11;100.00;99412.81;5002281;28;20036;-72
2023/11/27 08:38:24;;;;;;;4.63;3.55;;;;;;;6.13;100.00;99410.56;5015346;28;20030;-72
2023/11/27 08:40:50;;;;;;;4.70;2.90;;;;;;;6.15;100.00;99408.34;5015648;28;20176;-72
2023/11/27 08:43:16;;;;;;;6.05;3.03;;;;;;;6.16;100.00;99410.00;5015229;28;20117;-72
2023/11/27 08:45:42;;;;;;;7.20;2.95;;;;;;;6.17;100.00;99414.41;5016429;28;20121;-71
2023/11/27 08:48:08;;;;;;;4.88;2.35;;;;;;;6.19;100.00;99401.97;5034702;28;20045;-72
2023/11/27 08:50:36;;;;;;;3.67;2.63;;;;;;;6.22;100.00;99406.91;5018393;28;20056;-71
2023/11/27 08:53:05;;;;;;;3.33;2.72;;;;;;;6.24;100.00;99401.91;4999934;28;20414;-72
2023/11/27 08:55:31;;;;;;;4.25;2.58;;;;;;;6.24;100.00;99401.91;5019055;28;20026;-72
2023/11/27 08:58:04;;;;;;;6.60;2.40;;;;;;;6.25;100.00;99413.75;5030582;28;20041;-72
2023/11/27 09:00:34;;;;;;;6.93;2.25;;;;;;;6.28;100.00;99407.66;5003463;28;20036;-72
2023/11/27 09:03:00;;;;;;;5.22;2.60;;;;;;;6.28;100.00;99399.41;5034237;28;20108;-71
2023/11/27 09:05:26;;;;;;;6.15;2.40;;;;;;;6.30;100.00;99391.66;5022171;28;20026;-72
2023/11/27 09:07:53;;;;;;;6.07;2.70;;;;;;;6.32;100.00;99385.84;4982847;28;20097;-72
2023/11/27 09:10:21;;;;;;;3.72;2.20;;;;;;;6.33;100.00;99393.81;5015164;28;20038;-72
2023/11/27 09:12:49;;;;;;;5.13;2.40;;;;;;;6.34;100.00;99389.13;4999388;28;20059;-72
2023/11/27 09:15:17;;;;;;;3.40;2.25;;;;;;;6.34;100.00;99389.94;5017926;28;20025;-71
2023/11/27 09:17:42;;;;;;;6.95;2.30;;;;;;;6.35;100.00;99383.34;5001785;28;20077;-72
2023/11/27 09:20:10;;;;;;;3.17;2.22;;;;;;;6.36;100.00;99387.72;4985620;28;20160;-72
2023/11/27 09:22:36;;;;;;;6.32;2.22;;;;;;;6.38;100.00;99385.50;5017539;28;20030;-72
2023/11/27 09:25:02;;;;;;;5.95;2.05;;;;;;;6.40;100.00;99376.91;5018143;28;20057;-72
2023/11/27 09:27:31;;;;;;;7.13;2.47;;;;;;;6.40;100.00;99374.16;5000986;28;20041;-72
2023/11/27 09:29:56;;;;;;;7.88;2.22;;;;;;;6.43;100.00;99379.09;5001761;28;20033;-72
2023/11/27 09:32:21;;;;;;;6.80;2.58;;;;;;;6.45;100.00;99380.44;5018071;28;20032;-72
2023/11/27 09:34:47;;;;;;;2.78;1.95;;;;;;;6.46;100.00;99372.97;5034550;28;20030;-72
2023/11/27 09:37:12;;;;;;;6.28;2.17;;;;;;;6.47;100.00;99374.63;5018051;28;20033;-72
2023/11/27 09:39:39;;;;;;;5.35;2.20;;;;;;;6.49;100.00;99364.94;5026206;28;20508;-72
2023/11/27 09:42:04;;;;;;;3.70;1.90;;;;;;;6.52;100.00;99351.66;5017935;28;20104;-72
2023/11/27 09:44:30;;;;;;;5.53;2.00;;;;;;;6.54;100.00;99350.25;5018443;28;20072;-72
2023/11/27 09:46:57;;;;;;;4.93;2.22;;;;;;;6.55;100.00;99345.59;5023785;28;20040;-72
2023/11/27 09:49:23;;;;;;;5.32;2.53;;;;;;;6.57;100.00;99341.38;5047715;28;20033;-72
2023/11/27 09:51:55;;;;;;;5.22;2.50;;;;;;;6.61;100.00;99338.88;5021299;28;20033;-72
2023/11/27 09:54:24;;;;;;;5.13;2.20;;;;;;;6.62;100.00;99340.50;5002340;28;20117;-72
2023/11/27 09:56:51;;;;;;;6.15;2.20;;;;;;;6.66;100.00;99342.38;5000937;28;20060;-72
2023/11/27 09:59:17;;;;;;;5.30;2.40;;;;;;;6.69;100.00;99327.19;5005147;28;20037;-72
2023/11/27 10:01:42;;;;;;;6.68;2.10;;;;;;;6.71;100.00;99333.19;5004372;28;20021;-72
2023/11/27 10:04:08;;;;;;;5.47;2.63;;;;;;;6.74;100.00;99335.34;4988538;28;20033;-72
2023/11/27 10:06:35;;;;;;;3.97;2.47;;;;;;;6.78;100.00;99325.38;5004901;28;20056;-72
2023/11/27 10:09:07;;;;;;;10.18;2.45;;;;;;;6.80;100.00;99316.78;5021121;28;20033;-72
2023/11/27 10:11:36;;;;;;;5.07;2.40;;;;;;;6.83;100.00;99318.97;5037369;28;20052;-72
2023/11/27 10:14:04;;;;;;;7.53;2.72;;;;;;;6.85;100.00;99317.56;5037357;28;20032;-72
2023/11/27 10:16:31;;;;;;;4.78;2.30;;;;;;;6.86;100.00;99302.63;5029031;28;20092;-72
2023/11/27 10:19:07;;;;;;;5.78;2.95;;;;;;;6.88;100.00;99316.97;5013389;28;20385;-72
2023/11/27 10:21:41;;;;;;;9.15;2.47;;;;;;;6.90;100.00;99314.72;5033781;28;20029;-72
2023/11/27 10:24:10;;;;;;;6.13;2.30;;;;;;;6.93;100.00;99311.34;4998830;28;20451;-72
2023/11/27 10:26:41;;;;;;;5.43;2.70;;;;;;;6.94;100.00;99314.94;5005230;28;20072;-72
2023/11/27 10:29:08;;;;;;;7.95;3.08;;;;;;;6.97;100.00;99305.25;5020272;28;20095;-72
2023/11/27 10:31:35;;;;;;;11.15;2.80;;;;;;;6.99;100.00;99303.00;5020586;28;20040;-72
2023/11/27 10:34:01;;;;;;;8.48;3.83;;;;;;;7.05;100.00;99293.50;5021299;28;20025;-72
2023/11/27 10:36:27;;;;;;;7.22;3.15;;;;;;;7.05;100.00;99299.88;5001136;28;20386;-72
2023/11/27 10:39:14;;;;;;;8.88;3.35;;;;;;;7.09;100.00;99300.09;5035768;28;20045;-72
2023/11/27 10:41:43;;;;;;;6.95;3.10;;;;;;;7.09;100.00;99300.91;5019048;28;20482;-72
2023/11/27 10:44:10;;;;;;;9.90;3.05;;;;;;;7.12;100.00;99293.97;5004188;28;20084;-72
2023/11/27 10:46:35;;;;;;;5.90;2.83;;;;;;;7.12;100.00;99297.53;5030586;28;20493;-72
2023/11/27 10:49:01;;;;;;;6.88;2.85;;;;;;;7.13;100.00;99285.38;4983893;28;20137;-72
2023/11/27 10:51:31;;;;;;;7.63;3.15;;;;;;;7.16;100.00;99283.97;5000255;28;20482;-72
2023/11/27 10:53:58;;;;;;;7.20;3.20;;;;;;;7.15;100.00;99279.53;5016141;28;20080;-72
2023/11/27 10:56:24;;;;;;;9.95;4.00;;;;;;;7.21;100.00;99274.75;5011150;28;20068;-72
2023/11/27 10:58:49;;;;;;;3.92;3.05;;;;;;;7.21;100.00;99272.81;5021242;28;20022;-72
2023/11/27 11:01:15;;;;;;;6.03;3.63;;;;;;;7.22;100.00;99266.19;5018902;28;20064;-72
2023/11/27 11:03:42;;;;;;;8.88;3.38;;;;;;;7.23;100.00;99262.28;5013998;28;20443;-72
2023/11/27 11:06:08;;;;;;;5.93;2.88;;;;;;;7.23;100.00;99255.94;5036660;28;20033;-72
2023/11/27 11:08:34;;;;;;;5.93;3.80;;;;;;;7.25;100.00;99259.25;5016264;28;20497;-72
2023/11/27 11:11:01;;;;;;;6.63;3.25;;;;;;;7.25;100.00;99240.72;4996983;28;20036;-72
2023/11/27 11:13:27;;;;;;;10.00;4.05;;;;;;;7.29;100.00;99240.94;5010505;28;20035;-72
2023/11/27 11:16:19;;;;;;;7.00;3.38;;;;;;;7.29;100.00;99244.50;5016710;28;20160;-72
2023/11/27 11:19:00;;;;;;;11.80;3.78;;;;;;;7.33;100.00;99233.69;5035883;28;20034;-72
2023/11/27 11:21:55;;;;;;;8.43;4.28;;;;;;;7.36;100.00;99228.38;5013564;28;20499;-72
2023/11/27 11:24:29;;;;;;;10.18;3.53;;;;;;;7.41;100.00;99227.47;5018848;28;20029;-72
2023/11/27 11:27:27;;;;;;;6.95;3.47;;;;;;;7.44;100.00;99217.72;5035905;28;20025;-72